Time;durP1;ratioP1;P1;durP2;ratioP2;P2;SDS_P1;SDS_P2;PMS_P1;PMS_P2;Temp;Humidity;BMP_temperature;BMP_pressure;BME280_temperature;BME280_humidity;BME280_pressure;Samples;Min_cycle;Max_cycle;Signal;HPM_P1;HPM_P2
2023/03/11 00:01:15;;;;;;;10.82;3.38;;;0.20;99.90;;;;;;4973434;28;20101;-75
2023/03/11 00:03:41;;;;;;;4.90;3.53;;;0.20;99.90;;;;;;4979764;28;20550;-75
2023/03/11 00:06:06;;;;;;;8.73;3.75;;;0.20;99.90;;;;;;4989645;28;20176;-74
2023/03/11 00:08:32;;;;;;;6.72;3.60;;;0.30;99.90;;;;;;4979579;28;20050;-75
2023/03/11 00:10:59;;;;;;;11.15;4.28;;;0.30;99.90;;;;;;4988959;28;20069;-75
2023/03/11 00:13:26;;;;;;;8.35;3.45;;;0.30;99.90;;;;;;4975746;28;20560;-75
2023/03/11 00:15:58;;;;;;;10.60;3.63;;;0.30;99.90;;;;;;4972012;28;20046;-74
2023/03/11 00:18:26;;;;;;;14.15;3.85;;;0.30;99.90;;;;;;4972370;28;20121;-74
2023/03/11 00:20:54;;;;;;;6.30;3.20;;;0.30;99.90;;;;;;4963558;28;20064;-75
2023/03/11 00:23:20;;;;;;;12.23;4.20;;;0.30;99.90;;;;;;4971809;28;20054;-74
2023/03/11 00:25:46;;;;;;;7.10;3.30;;;0.30;99.90;;;;;;4989446;28;20100;-74
2023/03/11 00:28:14;;;;;;;6.97;3.38;;;0.30;99.90;;;;;;4972442;28;20090;-74
2023/03/11 00:30:41;;;;;;;6.30;3.90;;;0.30;99.90;;;;;;4970846;28;20038;-75
2023/03/11 00:33:08;;;;;;;14.65;4.03;;;0.40;99.90;;;;;;4972327;28;20491;-75
2023/03/11 00:35:34;;;;;;;14.50;4.85;;;0.30;99.90;;;;;;4985646;28;20100;-74
2023/03/11 00:38:05;;;;;;;11.00;3.45;;;0.40;99.90;;;;;;4971780;28;20050;-75
2023/03/11 00:40:33;;;;;;;5.55;2.80;;;0.40;99.90;;;;;;4978147;28;21025;-74
2023/03/11 00:42:59;;;;;;;9.63;3.40;;;0.40;99.90;;;;;;4975533;28;20058;-75
2023/03/11 00:45:26;;;;;;;5.43;2.97;;;0.40;99.90;;;;;;4976472;28;20429;-74
2023/03/11 00:47:52;;;;;;;7.25;3.53;;;0.40;99.90;;;;;;4965981;28;20098;-74
2023/03/11 00:50:21;;;;;;;9.20;3.42;;;0.40;99.90;;;;;;4977508;28;20054;-74
2023/03/11 00:52:47;;;;;;;;;;;0.40;99.90;;;;;;4973953;28;20108;-75
2023/03/11 00:55:15;;;;;;;9.20;4.00;;;0.30;99.90;;;;;;4976759;28;19945;-75
2023/03/11 00:57:42;;;;;;;8.85;3.72;;;0.30;99.90;;;;;;4980652;28;20054;-74
2023/03/11 01:00:12;;;;;;;9.68;3.78;;;0.30;99.90;;;;;;4968190;28;20100;-75
2023/03/11 01:02:37;;;;;;;9.88;3.50;;;0.30;99.90;;;;;;4963727;28;20840;-74
2023/03/11 01:05:06;;;;;;;8.70;4.05;;;0.30;99.90;;;;;;4986027;28;20057;-74
2023/03/11 01:07:32;;;;;;;12.50;3.58;;;0.30;99.90;;;;;;4983140;28;20104;-74
2023/03/11 01:09:58;;;;;;;9.15;3.22;;;0.30;99.90;;;;;;4969220;28;20054;-75
2023/03/11 01:12:24;;;;;;;14.85;4.53;;;0.30;99.90;;;;;;4989270;28;20046;-75
2023/03/11 01:14:50;;;;;;;7.22;3.17;;;0.30;99.90;;;;;;4988781;28;20913;-75
2023/03/11 01:17:16;;;;;;;9.38;3.70;;;0.30;99.90;;;;;;4988043;28;20053;-75
2023/03/11 01:19:41;;;;;;;9.82;4.05;;;0.30;99.90;;;;;;4992195;28;20133;-75
2023/03/11 01:22:07;;;;;;;12.50;3.80;;;0.30;99.90;;;;;;4986804;28;20117;-75
2023/03/11 01:24:33;;;;;;;7.00;3.60;;;0.30;99.90;;;;;;4984965;28;20057;-75
2023/03/11 01:26:58;;;;;;;10.32;2.88;;;0.30;99.90;;;;;;4971745;28;20053;-74
2023/03/11 01:29:24;;;;;;;6.78;3.88;;;0.30;99.90;;;;;;4974679;28;20050;-75
2023/03/11 01:31:50;;;;;;;10.05;3.28;;;0.30;99.90;;;;;;4964932;28;20074;-74
2023/03/11 01:34:15;;;;;;;10.45;4.53;;;0.30;99.90;;;;;;4972005;28;20389;-75
2023/03/11 01:36:41;;;;;;;5.32;3.38;;;0.30;99.90;;;;;;4974856;28;20041;-75
2023/03/11 01:39:07;;;;;;;9.52;3.83;;;0.30;99.90;;;;;;4978159;28;20065;-75
2023/03/11 01:41:32;;;;;;;9.88;3.30;;;0.30;99.90;;;;;;4968832;28;20139;-74
2023/03/11 01:43:58;;;;;;;8.30;3.42;;;0.30;99.90;;;;;;4976904;28;20046;-74
2023/03/11 01:46:35;;;;;;;5.18;2.70;;;0.30;99.90;;;;;;4978574;28;20534;-74
2023/03/11 01:49:05;;;;;;;7.45;3.67;;;0.30;99.90;;;;;;4960481;28;20105;-74
2023/03/11 01:51:53;;;;;;;9.32;3.17;;;0.30;99.90;;;;;;4970766;28;20641;-75
2023/03/11 01:54:32;;;;;;;13.75;4.18;;;0.30;99.90;;;;;;4979861;28;20055;-75
2023/03/11 01:57:00;;;;;;;7.30;3.10;;;0.20;99.90;;;;;;4987734;28;20047;-75
2023/03/11 01:59:30;;;;;;;10.55;3.58;;;0.20;99.90;;;;;;4990545;28;20061;-75
2023/03/11 02:02:10;;;;;;;7.30;3.50;;;0.20;99.90;;;;;;4982270;28;20058;-75
2023/03/11 02:04:37;;;;;;;11.85;3.50;;;0.20;99.90;;;;;;4992152;28;20074;-75
2023/03/11 02:07:06;;;;;;;14.70;3.83;;;0.20;99.90;;;;;;4977142;28;20050;-75
2023/03/11 02:09:31;;;;;;;6.80;3.40;;;0.20;99.90;;;;;;4974023;28;20046;-74
2023/03/11 02:11:57;;;;;;;6.45;2.95;;;0.20;99.90;;;;;;4979219;28;20047;-75
2023/03/11 02:14:28;;;;;;;7.70;2.95;;;0.20;99.90;;;;;;4982522;28;20137;-74
2023/03/11 02:16:54;;;;;;;8.95;3.05;;;0.20;99.90;;;;;;4969054;28;20069;-75
2023/03/11 02:19:53;;;;;;;6.30;3.17;;;0.20;99.90;;;;;;4974250;28;20769;-74
2023/03/11 02:22:19;;;;;;;7.93;3.35;;;0.20;99.90;;;;;;4987231;28;20050;-74
2023/03/11 02:24:59;;;;;;;4.80;3.10;;;0.20;99.90;;;;;;4962796;28;20051;-74
2023/03/11 02:27:26;;;;;;;8.38;3.72;;;0.20;99.90;;;;;;4970239;28;20046;-74
2023/03/11 02:29:55;;;;;;;7.90;3.38;;;0.20;99.90;;;;;;4990315;28;20088;-75
2023/03/11 02:32:21;;;;;;;;;;;0.20;99.90;;;;;;4988326;28;20049;-74
2023/03/11 02:34:46;;;;;;;5.47;2.70;;;0.20;99.90;;;;;;4975033;28;19925;-74
2023/03/11 02:37:16;;;;;;;8.48;3.33;;;0.10;99.90;;;;;;4983333;28;20061;-75
2023/03/11 02:39:48;;;;;;;10.93;3.55;;;0.20;99.90;;;;;;4989180;28;20053;-74
2023/03/11 02:42:25;;;;;;;6.13;3.05;;;0.10;99.90;;;;;;4977846;28;20381;-74
2023/03/11 02:44:54;;;;;;;5.88;2.75;;;0.10;99.90;;;;;;4989871;28;20050;-74
2023/03/11 02:47:20;;;;;;;8.43;3.17;;;0.10;99.90;;;;;;4974286;28;20078;-73
2023/03/11 02:49:46;;;;;;;4.30;2.50;;;0.00;99.90;;;;;;4974132;28;20057;-74
2023/03/11 02:52:13;;;;;;;20.08;3.75;;;0.00;99.90;;;;;;4974634;28;20038;-74
2023/03/11 02:54:38;;;;;;;8.63;3.00;;;-0.10;99.90;;;;;;4979938;28;20488;-74
2023/03/11 02:57:04;;;;;;;6.30;3.10;;;-0.10;99.90;;;;;;4976855;28;20065;-74
2023/03/11 02:59:30;;;;;;;6.07;2.88;;;-0.10;99.90;;;;;;4981099;28;20494;-74
2023/03/11 03:01:55;;;;;;;7.80;2.50;;;-0.20;99.90;;;;;;4991053;28;20578;-74
2023/03/11 03:04:21;;;;;;;9.18;3.17;;;-0.20;99.90;;;;;;4970754;28;20054;-74
2023/03/11 03:06:46;;;;;;;6.10;2.40;;;-0.20;99.90;;;;;;4987846;28;20101;-74
2023/03/11 03:09:12;;;;;;;11.18;3.17;;;-0.20;99.90;;;;;;4990382;28;20042;-74
2023/03/11 03:11:38;;;;;;;12.88;3.03;;;-0.20;99.90;;;;;;4964287;28;20104;-74
2023/03/11 03:14:03;;;;;;;7.15;3.33;;;-0.20;99.90;;;;;;4990951;28;20062;-74
2023/03/11 03:16:29;;;;;;;5.20;2.60;;;-0.20;99.90;;;;;;4991308;28;20057;-74
2023/03/11 03:18:55;;;;;;;8.10;3.53;;;-0.20;99.90;;;;;;4984518;28;20046;-74
2023/03/11 03:21:20;;;;;;;7.45;2.72;;;-0.10;99.90;;;;;;4990980;28;20054;-74
2023/03/11 03:23:46;;;;;;;8.98;3.08;;;-0.30;99.90;;;;;;4986705;28;20060;-74
2023/03/11 03:26:13;;;;;;;7.95;2.42;;;-0.30;99.90;;;;;;4990135;28;20065;-74
2023/03/11 03:28:39;;;;;;;4.95;2.88;;;-0.30;99.90;;;;;;4990879;28;20038;-73
2023/03/11 03:31:06;;;;;;;4.97;2.83;;;-0.40;99.90;;;;;;4984270;28;20117;-74
2023/03/11 03:33:32;;;;;;;3.80;2.37;;;-0.40;99.90;;;;;;4966568;28;20515;-74
2023/03/11 03:35:59;;;;;;;6.60;2.83;;;-0.40;99.90;;;;;;4990257;28;20293;-74
2023/03/11 03:38:25;;;;;;;4.82;2.35;;;-0.50;99.90;;;;;;4972779;28;20050;-74
2023/03/11 03:40:50;;;;;;;11.48;2.72;;;-0.60;99.90;;;;;;4989343;28;20521;-74
2023/03/11 03:43:16;;;;;;;4.85;2.10;;;-0.60;99.90;;;;;;5002471;28;20050;-74
2023/03/11 03:45:42;;;;;;;4.65;2.30;;;-0.70;99.90;;;;;;4973457;28;20117;-73
2023/03/11 03:48:07;;;;;;;9.27;2.88;;;-0.70;99.90;;;;;;4972751;28;20065;-73
2023/03/11 03:50:33;;;;;;;4.57;2.50;;;-0.80;99.90;;;;;;4973408;28;20573;-72
2023/03/11 03:53:00;;;;;;;5.57;2.47;;;-0.90;99.90;;;;;;4970351;28;20061;-73
2023/03/11 03:55:26;;;;;;;4.10;2.10;;;-0.90;99.90;;;;;;4971705;28;20074;-74
2023/03/11 03:57:51;;;;;;;5.55;2.60;;;-1.00;99.90;;;;;;4990666;28;20103;-72
2023/03/11 04:00:17;;;;;;;5.88;2.40;;;-1.10;99.90;;;;;;4973696;28;20050;-72
2023/03/11 04:02:44;;;;;;;5.05;2.10;;;-1.10;99.90;;;;;;4973699;28;20049;-72
2023/03/11 04:05:10;;;;;;;4.45;2.25;;;-1.20;99.90;;;;;;4990707;28;20058;-72
2023/03/11 04:07:36;;;;;;;7.38;2.75;;;-1.30;99.90;;;;;;4974483;28;20710;-72
2023/03/11 04:10:03;;;;;;;3.63;2.72;;;-1.30;99.90;;;;;;4989103;28;20042;-72
2023/03/11 04:12:29;;;;;;;3.10;2.17;;;-1.40;99.90;;;;;;4988814;28;20050;-72
2023/03/11 04:14:54;;;;;;;5.38;2.83;;;-1.40;99.90;;;;;;4972095;28;20057;-72
2023/03/11 04:17:20;;;;;;;4.45;2.63;;;-1.50;99.90;;;;;;4989213;28;20534;-72
2023/03/11 04:19:46;;;;;;;8.95;2.95;;;-1.60;99.90;;;;;;4989647;28;20050;-72
2023/03/11 04:22:12;;;;;;;3.60;2.38;;;-1.60;99.90;;;;;;4988326;28;20680;-73
2023/03/11 04:24:37;;;;;;;7.60;2.60;;;-1.70;99.90;;;;;;4984872;28;20088;-73
2023/03/11 04:27:03;;;;;;;7.25;2.90;;;-1.70;99.90;;;;;;4973615;28;20045;-73
2023/03/11 04:29:28;;;;;;;3.95;2.15;;;-1.80;99.90;;;;;;4971483;28;20054;-72
2023/03/11 04:31:54;;;;;;;9.10;2.55;;;-1.80;99.90;;;;;;4989192;28;20089;-73
2023/03/11 04:34:20;;;;;;;5.78;2.63;;;-1.80;99.90;;;;;;4972943;28;20177;-73
2023/03/11 04:36:46;;;;;;;3.10;2.08;;;-1.80;99.90;;;;;;4989577;28;20038;-73
2023/03/11 04:39:13;;;;;;;6.88;3.03;;;-1.90;99.90;;;;;;4981538;28;20133;-72
2023/03/11 04:41:39;;;;;;;3.35;2.50;;;-1.90;99.90;;;;;;4991746;28;20149;-73
2023/03/11 04:44:04;;;;;;;3.90;2.33;;;-1.90;99.90;;;;;;4989781;28;20137;-73
2023/03/11 04:46:30;;;;;;;4.75;2.50;;;-1.90;99.90;;;;;;4990431;28;20506;-72
2023/03/11 04:48:56;;;;;;;7.03;3.22;;;-2.00;99.90;;;;;;4989856;28;20054;-72
2023/03/11 04:51:21;;;;;;;7.95;2.47;;;-2.00;99.90;;;;;;4972026;28;20074;-73
2023/03/11 04:53:47;;;;;;;4.30;2.22;;;-2.00;99.90;;;;;;4988125;28;20046;-73
2023/03/11 04:56:12;;;;;;;2.58;2.17;;;-2.00;99.90;;;;;;4989253;28;20057;-73
2023/03/11 04:58:38;;;;;;;2.45;1.70;;;-2.10;99.90;;;;;;4988559;28;20729;-73
2023/03/11 05:01:04;;;;;;;3.88;2.13;;;-2.10;99.90;;;;;;4981967;28;20062;-73
2023/03/11 05:03:29;;;;;;;6.93;2.15;;;-2.10;99.90;;;;;;4984024;28;20112;-73
2023/03/11 05:05:55;;;;;;;3.13;2.35;;;-2.20;99.90;;;;;;4988917;28;20049;-73
2023/03/11 05:08:22;;;;;;;6.65;2.40;;;-2.20;99.90;;;;;;4971524;28;20128;-72
2023/03/11 05:10:50;;;;;;;5.97;1.88;;;-2.20;99.90;;;;;;4980199;28;20050;-73
2023/03/11 05:13:15;;;;;;;2.92;1.77;;;-2.20;99.90;;;;;;4982128;28;20050;-73
2023/03/11 05:15:41;;;;;;;2.70;1.88;;;-2.20;99.90;;;;;;4989413;28;20373;-73
2023/03/11 05:18:07;;;;;;;2.40;1.98;;;-2.20;99.90;;;;;;4976317;28;20530;-73
2023/03/11 05:20:32;;;;;;;10.95;2.60;;;-2.30;99.90;;;;;;4986444;28;20072;-73
2023/03/11 05:22:58;;;;;;;9.32;2.53;;;-2.30;99.90;;;;;;4987019;28;20062;-73
2023/03/11 05:25:24;;;;;;;7.15;2.67;;;-2.30;99.90;;;;;;4969511;28;20058;-73
2023/03/11 05:27:51;;;;;;;5.38;2.92;;;-2.40;99.90;;;;;;4977201;28;20058;-73
2023/03/11 05:30:16;;;;;;;5.07;2.33;;;-2.30;99.90;;;;;;4968744;28;20049;-73
2023/03/11 05:32:43;;;;;;;4.32;2.38;;;-2.40;99.90;;;;;;4983377;28;20495;-73
2023/03/11 05:35:09;;;;;;;5.72;2.58;;;-2.40;99.90;;;;;;4994701;28;20603;-73
2023/03/11 05:37:37;;;;;;;4.82;2.53;;;-2.40;99.90;;;;;;4975369;28;20061;-73
2023/03/11 05:40:06;;;;;;;5.97;2.20;;;-2.40;99.90;;;;;;4980372;28;20061;-73
2023/03/11 05:42:33;;;;;;;3.88;2.47;;;-2.50;99.90;;;;;;4970793;28;20120;-73
2023/03/11 05:44:59;;;;;;;10.93;2.85;;;-2.50;99.90;;;;;;4980733;28;20054;-73
2023/03/11 05:47:25;;;;;;;3.15;2.10;;;-2.50;99.90;;;;;;4979345;28;20510;-73
2023/03/11 05:49:51;;;;;;;5.35;2.30;;;-2.50;99.90;;;;;;4987081;28;20038;-73
2023/03/11 05:52:17;;;;;;;3.55;2.30;;;-2.50;99.90;;;;;;4991699;28;20125;-73
2023/03/11 05:54:43;;;;;;;7.88;2.83;;;-2.60;99.90;;;;;;4991002;28;20615;-73
2023/03/11 05:57:08;;;;;;;9.25;3.00;;;-2.60;99.90;;;;;;4978720;28;20050;-73
2023/03/11 05:59:36;;;;;;;3.90;2.42;;;-2.60;99.90;;;;;;4970845;28;20038;-74
2023/03/11 06:02:02;;;;;;;5.13;2.40;;;-2.60;99.90;;;;;;4972716;28;20442;-73
2023/03/11 06:04:28;;;;;;;5.18;2.13;;;-2.60;99.90;;;;;;4988095;28;20366;-73
2023/03/11 06:06:53;;;;;;;4.82;2.70;;;-2.60;99.90;;;;;;4988644;28;20065;-73
2023/03/11 06:09:19;;;;;;;4.13;2.63;;;-2.60;99.90;;;;;;4980963;28;20053;-73
2023/03/11 06:11:45;;;;;;;5.85;2.28;;;-2.50;99.90;;;;;;4981839;28;20050;-73
2023/03/11 06:14:12;;;;;;;9.38;2.88;;;-2.40;99.90;;;;;;4971361;28;20491;-73
2023/03/11 06:16:38;;;;;;;5.50;2.45;;;-2.20;99.90;;;;;;4977182;28;20057;-73
2023/03/11 06:19:04;;;;;;;4.32;2.60;;;-1.80;99.90;;;;;;4990496;28;20058;-73
2023/03/11 06:21:30;;;;;;;6.72;2.85;;;-1.30;99.90;;;;;;4980932;28;20062;-73
2023/03/11 06:23:56;;;;;;;5.60;2.15;;;-0.90;99.90;;;;;;4972518;28;20058;-73
2023/03/11 06:26:22;;;;;;;7.28;2.65;;;-0.70;99.90;;;;;;4974335;28;20104;-73
2023/03/11 06:28:50;;;;;;;4.53;2.25;;;-0.50;99.90;;;;;;4975362;28;20038;-73
2023/03/11 06:31:23;;;;;;;3.43;2.53;;;0.10;99.90;;;;;;4971561;28;20046;-73
2023/03/11 06:33:48;;;;;;;8.70;2.63;;;0.80;99.90;;;;;;4972757;28;20132;-73
2023/03/11 06:36:18;;;;;;;10.00;1.67;;;1.40;99.90;;;;;;4990804;28;20487;-73
2023/03/11 06:38:45;;;;;;;4.15;1.98;;;2.10;99.90;;;;;;4990317;28;20050;-73
2023/03/11 06:41:11;;;;;;;3.95;2.38;;;2.70;99.90;;;;;;4991503;28;20184;-73
2023/03/11 06:43:37;;;;;;;4.40;2.08;;;3.30;99.90;;;;;;4979209;28;20038;-73
2023/03/11 06:46:11;;;;;;;2.38;1.70;;;3.90;99.90;;;;;;4991748;28;20046;-73
2023/03/11 06:48:37;;;;;;;6.25;2.08;;;4.40;99.90;;;;;;4977506;28;20631;-73
2023/03/11 06:51:02;;;;;;;3.33;2.30;;;4.90;99.90;;;;;;4970978;28;20141;-73
2023/03/11 06:53:29;;;;;;;4.80;2.60;;;5.40;99.90;;;;;;4986258;28;20038;-73
2023/03/11 06:56:04;;;;;;;4.05;2.60;;;5.80;99.90;;;;;;4990641;28;20076;-73
2023/03/11 06:58:31;;;;;;;4.00;2.20;;;6.20;99.90;;;;;;4980176;28;20081;-73
2023/03/11 07:01:05;;;;;;;4.28;2.40;;;6.50;99.90;;;;;;4984772;28;20058;-73
2023/03/11 07:03:30;;;;;;;4.53;2.53;;;6.80;99.90;;;;;;4985222;28;20407;-73
2023/03/11 07:05:57;;;;;;;5.80;2.05;;;7.00;99.90;;;;;;4979502;28;20045;-73
2023/03/11 07:08:23;;;;;;;4.22;2.17;;;7.10;99.90;;;;;;4976746;28;20086;-73
2023/03/11 07:11:02;;;;;;;5.10;2.35;;;6.90;99.90;;;;;;4972966;28;20086;-73
2023/03/11 07:13:28;;;;;;;4.63;2.08;;;6.50;99.90;;;;;;4975679;28;20054;-73
2023/03/11 07:16:06;;;;;;;9.45;3.10;;;6.20;99.90;;;;;;4973829;28;20043;-73
2023/03/11 07:18:35;;;;;;;6.25;2.45;;;5.50;99.90;;;;;;4987660;28;20050;-72
2023/03/11 07:21:05;;;;;;;5.72;3.10;;;4.90;99.90;;;;;;4971551;28;20412;-72
2023/03/11 07:23:32;;;;;;;4.40;2.60;;;4.50;99.90;;;;;;4987835;28;20141;-72
2023/03/11 07:25:59;;;;;;;6.45;2.33;;;4.10;99.90;;;;;;4973095;28;20058;-72
2023/03/11 07:28:26;;;;;;;4.68;2.20;;;3.80;99.90;;;;;;4972582;28;20050;-73
2023/03/11 07:30:54;;;;;;;7.43;2.60;;;3.50;99.90;;;;;;4972926;28;20081;-73
2023/03/11 07:33:22;;;;;;;6.47;2.70;;;3.30;99.90;;;;;;4972706;28;20056;-72
2023/03/11 07:35:49;;;;;;;3.13;2.13;;;3.40;99.90;;;;;;4965496;28;20046;-73
2023/03/11 07:38:16;;;;;;;4.22;2.53;;;3.30;99.90;;;;;;4987266;28;20046;-72
2023/03/11 07:40:43;;;;;;;4.03;2.58;;;3.20;99.90;;;;;;4966780;28;20121;-73
2023/03/11 07:43:09;;;;;;;4.25;2.50;;;3.00;99.90;;;;;;4978458;28;20086;-72
2023/03/11 07:45:35;;;;;;;6.88;2.25;;;2.90;99.90;;;;;;4985268;28;20050;-72
2023/03/11 07:48:00;;;;;;;11.98;2.83;;;2.70;99.90;;;;;;4974055;28;20427;-73
2023/03/11 07:50:26;;;;;;;4.35;2.55;;;2.60;99.90;;;;;;4978652;28;20109;-73
2023/03/11 07:52:52;;;;;;;5.78;3.83;;;2.40;99.90;;;;;;4973224;28;20050;-73
2023/03/11 07:55:18;;;;;;;4.95;2.75;;;2.30;99.90;;;;;;4973389;28;20562;-73
2023/03/11 07:57:47;;;;;;;3.90;2.78;;;2.10;99.90;;;;;;4970834;28;20471;-72
2023/03/11 08:00:13;;;;;;;12.07;2.85;;;2.00;99.90;;;;;;4970217;28;20474;-72
2023/03/11 08:02:40;;;;;;;4.95;2.92;;;2.00;99.90;;;;;;4980949;28;20057;-73
2023/03/11 08:05:06;;;;;;;4.47;3.40;;;1.90;99.90;;;;;;4974967;28;20483;-73
2023/03/11 08:07:32;;;;;;;5.85;2.72;;;1.80;99.90;;;;;;4984213;28;20050;-73
2023/03/11 08:09:58;;;;;;;4.63;3.00;;;1.80;99.90;;;;;;4988877;28;20082;-73
2023/03/11 08:12:24;;;;;;;7.65;2.80;;;1.80;99.90;;;;;;4973216;28;20050;-73
2023/03/11 08:14:49;;;;;;;6.32;3.00;;;1.80;99.90;;;;;;4971195;28;20049;-72
2023/03/11 08:17:15;;;;;;;7.68;2.60;;;1.90;99.90;;;;;;4982643;28;20057;-73
2023/03/11 08:19:41;;;;;;;4.47;3.35;;;2.00;99.90;;;;;;4988501;28;20090;-72
2023/03/11 08:22:06;;;;;;;13.00;3.35;;;2.00;99.90;;;;;;4972179;28;20761;-72
2023/03/11 08:24:32;;;;;;;6.43;3.03;;;2.00;99.90;;;;;;4964916;28;20434;-72
2023/03/11 08:26:58;;;;;;;6.80;2.88;;;2.10;99.90;;;;;;4978494;28;20073;-72
2023/03/11 08:29:24;;;;;;;8.65;3.15;;;2.10;99.90;;;;;;4968702;28;20053;-72
2023/03/11 08:31:50;;;;;;;2.83;2.53;;;2.10;99.90;;;;;;4987955;28;20162;-72
2023/03/11 08:34:15;;;;;;;4.60;3.40;;;2.10;99.90;;;;;;4986355;28;20709;-72
2023/03/11 08:36:41;;;;;;;7.28;3.38;;;2.10;99.90;;;;;;4988078;28;20101;-73
2023/03/11 08:39:08;;;;;;;8.38;3.15;;;2.10;99.90;;;;;;4971753;28;20529;-72
2023/03/11 08:41:34;;;;;;;8.25;3.30;;;2.20;99.90;;;;;;4987437;28;20042;-72
2023/03/11 08:44:00;;;;;;;4.18;3.22;;;2.20;99.90;;;;;;4971209;28;20056;-73
2023/03/11 08:46:37;;;;;;;6.93;4.03;;;2.30;99.90;;;;;;4971370;28;20064;-72
2023/03/11 08:49:04;;;;;;;7.03;3.28;;;2.30;99.90;;;;;;4985228;28;20093;-72
2023/03/11 08:51:32;;;;;;;6.82;3.50;;;2.40;99.90;;;;;;4986867;28;20542;-72
2023/03/11 08:53:59;;;;;;;5.70;3.45;;;2.40;99.90;;;;;;4968990;28;20385;-72
2023/03/11 08:56:25;;;;;;;6.13;3.70;;;2.40;99.90;;;;;;4969987;28;20410;-72
2023/03/11 08:58:50;;;;;;;7.70;4.13;;;2.50;99.90;;;;;;4967442;28;20048;-72
2023/03/11 09:01:16;;;;;;;25.52;4.00;;;2.60;99.90;;;;;;4969369;28;20043;-72
2023/03/11 09:03:42;;;;;;;6.15;2.92;;;2.70;99.90;;;;;;4956638;28;20053;-72
2023/03/11 09:06:14;;;;;;;4.72;3.30;;;2.80;99.90;;;;;;4983006;28;20054;-72
2023/03/11 09:08:40;;;;;;;4.70;3.20;;;2.80;99.90;;;;;;4964417;28;20077;-72
2023/03/11 09:11:07;;;;;;;5.90;3.30;;;2.90;99.90;;;;;;4968676;28;20051;-72
2023/03/11 09:13:32;;;;;;;7.78;3.35;;;3.00;99.90;;;;;;4979496;28;20073;-73
2023/03/11 09:15:58;;;;;;;10.68;4.22;;;3.10;99.90;;;;;;4988177;28;20671;-72
2023/03/11 09:18:24;;;;;;;4.00;3.33;;;3.20;99.90;;;;;;4984597;28;20491;-72
2023/03/11 09:20:50;;;;;;;5.43;3.03;;;3.40;99.90;;;;;;4989275;28;20049;-72
2023/03/11 09:23:17;;;;;;;3.88;2.60;;;3.50;99.90;;;;;;4966299;28;20138;-73
2023/03/11 09:25:43;;;;;;;6.25;3.35;;;3.70;99.90;;;;;;4985736;28;20089;-73
2023/03/11 09:28:08;;;;;;;5.88;3.75;;;3.90;99.90;;;;;;4987181;28;20046;-73
2023/03/11 09:30:34;;;;;;;7.20;2.95;;;4.00;99.90;;;;;;4988315;28;20051;-73
2023/03/11 09:33:00;;;;;;;5.18;3.03;;;4.20;99.90;;;;;;4974750;28;20377;-71
2023/03/11 09:35:26;;;;;;;4.00;3.30;;;4.40;99.90;;;;;;4983746;28;20105;-73
2023/03/11 09:37:53;;;;;;;7.97;3.08;;;4.50;99.90;;;;;;4987091;28;20153;-74
2023/03/11 09:40:21;;;;;;;6.75;3.50;;;4.70;99.90;;;;;;4970121;28;20066;-73
2023/03/11 09:43:05;;;;;;;5.63;3.53;;;4.80;99.90;;;;;;4985172;28;20058;-74
2023/03/11 09:45:35;;;;;;;4.25;3.00;;;5.00;99.90;;;;;;4968877;28;20043;-74
2023/03/11 09:48:29;;;;;;;8.13;3.20;;;5.20;99.90;;;;;;4985034;28;20431;-74
2023/03/11 09:51:16;;;;;;;7.22;3.17;;;5.50;99.90;;;;;;4981731;28;20126;-74
2023/03/11 09:53:49;;;;;;;6.20;3.80;;;5.70;99.90;;;;;;4977930;28;20070;-74
2023/03/11 09:56:20;;;;;;;6.40;3.38;;;5.80;99.90;;;;;;4962788;28;20516;-73
2023/03/11 09:58:49;;;;;;;7.70;3.40;;;6.00;99.90;;;;;;4964250;28;20046;-73
2023/03/11 10:01:34;;;;;;;;;;;6.00;99.90;;;;;;4973367;28;20865;-73
2023/03/11 10:04:19;;;;;;;8.10;3.63;;;6.10;99.90;;;;;;4971097;28;20391;-74
2023/03/11 10:06:46;;;;;;;5.72;2.78;;;6.20;99.90;;;;;;4971866;28;20092;-74
2023/03/11 10:09:41;;;;;;;4.90;2.92;;;6.30;99.90;;;;;;4971480;28;20054;-74
2023/03/11 10:12:25;;;;;;;9.23;3.88;;;6.30;99.90;;;;;;4955645;28;20133;-74
2023/03/11 10:15:22;;;;;;;5.75;3.22;;;6.50;99.90;;;;;;4971858;28;20054;-74
2023/03/11 10:17:57;;;;;;;3.00;2.55;;;6.60;99.90;;;;;;4971677;28;20160;-74
2023/03/11 10:20:38;;;;;;;6.90;3.50;;;6.70;99.90;;;;;;4971758;28;20100;-75
2023/03/11 10:23:12;;;;;;;6.07;3.35;;;6.80;99.90;;;;;;4967854;28;20057;-74
2023/03/11 10:25:59;;;;;;;7.57;3.58;;;6.90;99.90;;;;;;4963620;28;20062;-74
2023/03/11 10:28:49;;;;;;;5.40;2.80;;;6.90;99.90;;;;;;4968688;28;20109;-74
2023/03/11 10:31:26;;;;;;;7.10;3.10;;;7.00;99.90;;;;;;4968671;28;20042;-74
2023/03/11 10:34:32;;;;;;;7.93;3.20;;;7.10;99.90;;;;;;4968179;28;20051;-75
2023/03/11 10:37:04;;;;;;;3.22;2.88;;;7.10;99.90;;;;;;4944563;28;20059;-75
2023/03/11 10:39:32;;;;;;;3.10;2.65;;;7.10;99.90;;;;;;4971892;28;20054;-75
2023/03/11 10:42:09;;;;;;;12.75;3.33;;;7.00;99.90;;;;;;4987039;28;20078;-75
2023/03/11 10:44:37;;;;;;;5.20;3.05;;;7.00;99.90;;;;;;4969082;28;20063;-75
2023/03/11 10:47:03;;;;;;;8.52;3.55;;;7.10;99.90;;;;;;4974919;28;20516;-76
2023/03/11 10:49:29;;;;;;;5.07;3.00;;;7.10;99.90;;;;;;4978670;28;20062;-74
2023/03/11 10:51:56;;;;;;;6.05;3.20;;;7.20;99.90;;;;;;4972765;28;20492;-74
2023/03/11 10:54:31;;;;;;;8.48;2.97;;;7.30;99.90;;;;;;4971353;28;20066;-74
2023/03/11 10:57:02;;;;;;;11.50;3.63;;;7.30;99.90;;;;;;4972614;28;20089;-74
2023/03/11 10:59:45;;;;;;;9.30;3.17;;;7.30;99.90;;;;;;4972772;28;20054;-75
2023/03/11 11:02:25;;;;;;;4.32;2.92;;;7.40;99.90;;;;;;4981266;28;20467;-74
2023/03/11 11:05:06;;;;;;;6.10;3.15;;;7.40;99.90;;;;;;4968851;28;20055;-74
2023/03/11 11:07:39;;;;;;;6.60;3.53;;;7.50;99.90;;;;;;4971945;28;20045;-75
2023/03/11 11:10:14;;;;;;;6.50;3.08;;;7.60;99.90;;;;;;4967363;28;20047;-74
2023/03/11 11:12:54;;;;;;;5.97;2.80;;;7.50;99.90;;;;;;4982749;28;20051;-73
2023/03/11 11:15:33;;;;;;;2.85;2.30;;;7.50;99.90;;;;;;4970744;28;20676;-74
2023/03/11 11:18:02;;;;;;;4.35;2.63;;;7.50;99.90;;;;;;4970403;28;20046;-73
2023/03/11 11:20:29;;;;;;;7.20;3.55;;;7.50;99.90;;;;;;4971903;28;20158;-73
2023/03/11 11:23:00;;;;;;;5.05;2.65;;;7.50;99.90;;;;;;4966449;28;20133;-74
2023/03/11 11:25:36;;;;;;;4.40;3.10;;;7.50;99.90;;;;;;4970367;28;20769;-73
2023/03/11 11:28:22;;;;;;;12.63;2.65;;;7.50;99.90;;;;;;4969675;28;20057;-74
2023/03/11 11:31:22;;;;;;;4.18;2.80;;;7.60;99.90;;;;;;4966932;28;20704;-74
2023/03/11 11:33:53;;;;;;;25.45;3.90;;;7.60;99.90;;;;;;4966445;28;20050;-74
2023/03/11 11:36:26;;;;;;;10.35;3.35;;;7.70;99.90;;;;;;4969103;28;20058;-74
2023/03/11 11:38:53;;;;;;;3.80;2.25;;;7.80;99.90;;;;;;4982937;28;20130;-73
2023/03/11 11:41:21;;;;;;;6.45;3.42;;;7.80;99.90;;;;;;4970000;28;20534;-72
2023/03/11 11:43:53;;;;;;;7.68;3.10;;;7.70;99.90;;;;;;4971368;28;20046;-73
2023/03/11 11:46:29;;;;;;;7.47;3.28;;;7.80;99.90;;;;;;4971297;28;20090;-74
2023/03/11 11:49:22;;;;;;;6.88;3.30;;;7.70;99.90;;;;;;4968771;28;20047;-73
2023/03/11 11:51:56;;;;;;;8.00;2.80;;;7.70;99.90;;;;;;4970860;28;20054;-74
2023/03/11 11:54:53;;;;;;;4.95;3.00;;;7.60;99.90;;;;;;4969782;28;20074;-74
2023/03/11 11:57:21;;;;;;;3.17;2.58;;;7.70;99.90;;;;;;4956467;28;20190;-74
2023/03/11 11:59:47;;;;;;;5.68;2.83;;;7.70;99.90;;;;;;4969744;28;20134;-74
2023/03/11 12:02:47;;;;;;;6.15;3.55;;;7.70;99.90;;;;;;4966644;28;20417;-74
2023/03/11 12:05:24;;;;;;;5.03;2.50;;;7.70;99.90;;;;;;4966563;28;20055;-74
2023/03/11 12:07:56;;;;;;;7.18;3.00;;;7.70;99.90;;;;;;4970538;28;20051;-74
2023/03/11 12:10:32;;;;;;;7.90;3.08;;;7.70;99.90;;;;;;4970246;28;20426;-74
2023/03/11 12:13:18;;;;;;;10.60;3.75;;;7.70;99.90;;;;;;4953247;28;20051;-74
2023/03/11 12:16:04;;;;;;;5.60;3.03;;;7.80;99.90;;;;;;4968629;28;20055;-74
2023/03/11 12:18:47;;;;;;;4.70;3.33;;;7.70;99.90;;;;;;4970739;28;20523;-74
2023/03/11 12:21:47;;;;;;;8.57;2.60;;;7.70;99.90;;;;;;4969209;28;20062;-74
2023/03/11 12:24:40;;;;;;;2.65;1.70;;;7.90;99.90;;;;;;4968652;28;20054;-74
2023/03/11 12:27:30;;;;;;;9.82;3.25;;;7.90;99.90;;;;;;4985462;28;20054;-74
2023/03/11 12:30:03;;;;;;;3.33;2.53;;;8.00;99.90;;;;;;4968357;28;20567;-74
2023/03/11 12:32:36;;;;;;;4.03;2.05;;;8.00;99.90;;;;;;4970108;28;20066;-74
2023/03/11 12:35:19;;;;;;;7.40;2.95;;;8.00;99.90;;;;;;4967666;28;20444;-74
2023/03/11 12:37:45;;;;;;;12.38;3.28;;;8.00;99.90;;;;;;4967467;28;20054;-74
2023/03/11 12:40:48;;;;;;;6.40;3.00;;;8.00;99.90;;;;;;4968183;28;20043;-74
2023/03/11 12:43:46;;;;;;;2.72;1.98;;;8.00;99.90;;;;;;4968800;28;20077;-74
2023/03/11 12:46:16;;;;;;;14.75;3.47;;;8.00;99.90;;;;;;4965740;28;20055;-75
2023/03/11 12:48:41;;;;;;;5.40;2.60;;;8.00;99.90;;;;;;4966890;28;20134;-75
2023/03/11 12:51:30;;;;;;;5.53;2.65;;;7.90;99.90;;;;;;4982193;28;20423;-75
2023/03/11 12:53:56;;;;;;;4.63;2.40;;;7.90;99.90;;;;;;4955666;28;20046;-75
2023/03/11 12:56:43;;;;;;;7.00;2.40;;;7.80;99.90;;;;;;4968536;28;20640;-76
2023/03/11 12:59:33;;;;;;;4.15;2.25;;;7.70;99.90;;;;;;4966057;28;20069;-75
2023/03/11 13:02:08;;;;;;;8.18;2.13;;;7.70;99.90;;;;;;4968335;28;20061;-75
2023/03/11 13:04:59;;;;;;;4.20;2.30;;;7.60;99.90;;;;;;4968845;28;20516;-75
2023/03/11 13:07:42;;;;;;;6.30;2.42;;;7.60;99.90;;;;;;4975595;28;20133;-75